sensor_id;sensor_type;location;lat;lon;timestamp;P1;durP1;ratioP1;P2;durP2;ratioP2
4980;SDS011;2507;50.392;7.482;2023-05-21T00:01:48;14.40;;;13.00;;
4980;SDS011;2507;50.392;7.482;2023-05-21T00:04:14;16.27;;;14.07;;
4980;SDS011;2507;50.392;7.482;2023-05-21T00:06:39;16.10;;;13.70;;
4980;SDS011;2507;50.392;7.482;2023-05-21T00:09:05;15.20;;;13.80;;
4980;SDS011;2507;50.392;7.482;2023-05-21T00:11:30;15.67;;;14.17;;
4980;SDS011;2507;50.392;7.482;2023-05-21T00:13:56;15.00;;;13.60;;
4980;SDS011;2507;50.392;7.482;2023-05-21T00:16:22;15.53;;;13.93;;
4980;SDS011;2507;50.392;7.482;2023-05-21T00:18:48;15.60;;;14.00;;
4980;SDS011;2507;50.392;7.482;2023-05-21T00:21:14;16.03;;;14.10;;
4980;SDS011;2507;50.392;7.482;2023-05-21T00:23:41;18.03;;;14.70;;
4980;SDS011;2507;50.392;7.482;2023-05-21T00:26:07;16.80;;;15.10;;
4980;SDS011;2507;50.392;7.482;2023-05-21T00:28:32;15.20;;;13.70;;
4980;SDS011;2507;50.392;7.482;2023-05-21T00:30:57;14.90;;;13.40;;
4980;SDS011;2507;50.392;7.482;2023-05-21T00:33:23;16.70;;;13.43;;
4980;SDS011;2507;50.392;7.482;2023-05-21T00:35:50;15.50;;;13.70;;
4980;SDS011;2507;50.392;7.482;2023-05-21T00:38:16;16.00;;;14.30;;
4980;SDS011;2507;50.392;7.482;2023-05-21T00:40:41;15.67;;;13.30;;
4980;SDS011;2507;50.392;7.482;2023-05-21T00:43:07;18.47;;;15.13;;
4980;SDS011;2507;50.392;7.482;2023-05-21T00:45:34;17.30;;;14.77;;
4980;SDS011;2507;50.392;7.482;2023-05-21T00:48:01;17.53;;;14.63;;
4980;SDS011;2507;50.392;7.482;2023-05-21T00:50:28;17.30;;;15.10;;
4980;SDS011;2507;50.392;7.482;2023-05-21T00:52:54;15.20;;;13.77;;
4980;SDS011;2507;50.392;7.482;2023-05-21T00:55:20;14.50;;;13.10;;
4980;SDS011;2507;50.392;7.482;2023-05-21T00:57:45;14.03;;;12.73;;
4980;SDS011;2507;50.392;7.482;2023-05-21T01:00:11;15.33;;;13.90;;
4980;SDS011;2507;50.392;7.482;2023-05-21T01:02:38;14.80;;;13.33;;
4980;SDS011;2507;50.392;7.482;2023-05-21T01:05:04;15.17;;;13.57;;
4980;SDS011;2507;50.392;7.482;2023-05-21T01:07:31;15.47;;;13.90;;
4980;SDS011;2507;50.392;7.482;2023-05-21T01:10:02;15.33;;;13.83;;
4980;SDS011;2507;50.392;7.482;2023-05-21T01:12:29;15.23;;;13.73;;
4980;SDS011;2507;50.392;7.482;2023-05-21T01:14:57;17.80;;;14.40;;
4980;SDS011;2507;50.392;7.482;2023-05-21T01:17:25;15.77;;;14.27;;
4980;SDS011;2507;50.392;7.482;2023-05-21T01:19:51;16.63;;;14.47;;
4980;SDS011;2507;50.392;7.482;2023-05-21T01:22:18;15.80;;;14.03;;
4980;SDS011;2507;50.392;7.482;2023-05-21T01:24:48;18.40;;;14.40;;
4980;SDS011;2507;50.392;7.482;2023-05-21T01:27:13;16.83;;;13.80;;
4980;SDS011;2507;50.392;7.482;2023-05-21T01:29:39;18.03;;;14.97;;
4980;SDS011;2507;50.392;7.482;2023-05-21T01:32:16;15.30;;;13.70;;
4980;SDS011;2507;50.392;7.482;2023-05-21T01:40:33;15.17;;;13.53;;
4980;SDS011;2507;50.392;7.482;2023-05-21T01:43:03;16.97;;;13.70;;
4980;SDS011;2507;50.392;7.482;2023-05-21T01:45:31;14.37;;;12.97;;
4980;SDS011;2507;50.392;7.482;2023-05-21T01:47:58;15.53;;;14.00;;
4980;SDS011;2507;50.392;7.482;2023-05-21T01:50:24;16.87;;;14.77;;
4980;SDS011;2507;50.392;7.482;2023-05-21T01:52:54;14.00;;;12.63;;
4980;SDS011;2507;50.392;7.482;2023-05-21T01:55:25;15.03;;;13.53;;
4980;SDS011;2507;50.392;7.482;2023-05-21T01:57:52;15.10;;;13.60;;
4980;SDS011;2507;50.392;7.482;2023-05-21T02:00:21;14.50;;;12.93;;
4980;SDS011;2507;50.392;7.482;2023-05-21T02:02:49;15.73;;;13.13;;
4980;SDS011;2507;50.392;7.482;2023-05-21T02:05:15;15.70;;;14.10;;
4980;SDS011;2507;50.392;7.482;2023-05-21T02:07:43;15.40;;;13.80;;
4980;SDS011;2507;50.392;7.482;2023-05-21T02:10:10;14.47;;;13.10;;
4980;SDS011;2507;50.392;7.482;2023-05-21T02:12:35;14.93;;;13.50;;
4980;SDS011;2507;50.392;7.482;2023-05-21T02:15:01;16.70;;;14.93;;
4980;SDS011;2507;50.392;7.482;2023-05-21T02:17:27;15.23;;;13.70;;
4980;SDS011;2507;50.392;7.482;2023-05-21T02:19:55;14.77;;;13.27;;
4980;SDS011;2507;50.392;7.482;2023-05-21T02:22:20;15.20;;;13.70;;
4980;SDS011;2507;50.392;7.482;2023-05-21T02:24:45;15.13;;;13.37;;
4980;SDS011;2507;50.392;7.482;2023-05-21T02:27:11;15.00;;;13.60;;
4980;SDS011;2507;50.392;7.482;2023-05-21T02:29:37;15.73;;;14.03;;
4980;SDS011;2507;50.392;7.482;2023-05-21T02:32:02;14.70;;;13.30;;
4980;SDS011;2507;50.392;7.482;2023-05-21T02:34:28;14.87;;;13.47;;
4980;SDS011;2507;50.392;7.482;2023-05-21T02:36:56;15.27;;;13.43;;
4980;SDS011;2507;50.392;7.482;2023-05-21T02:39:22;15.43;;;13.93;;
4980;SDS011;2507;50.392;7.482;2023-05-21T02:41:48;15.03;;;13.33;;
4980;SDS011;2507;50.392;7.482;2023-05-21T02:44:13;16.00;;;14.23;;
4980;SDS011;2507;50.392;7.482;2023-05-21T02:46:38;15.43;;;13.93;;
4980;SDS011;2507;50.392;7.482;2023-05-21T02:49:04;17.03;;;14.10;;
4980;SDS011;2507;50.392;7.482;2023-05-21T02:51:30;18.10;;;14.97;;
4980;SDS011;2507;50.392;7.482;2023-05-21T02:53:55;15.70;;;14.20;;
4980;SDS011;2507;50.392;7.482;2023-05-21T02:56:21;16.07;;;14.47;;
4980;SDS011;2507;50.392;7.482;2023-05-21T02:58:46;16.00;;;13.70;;
4980;SDS011;2507;50.392;7.482;2023-05-21T03:01:11;20.83;;;14.77;;
4980;SDS011;2507;50.392;7.482;2023-05-21T03:03:37;15.87;;;14.17;;
4980;SDS011;2507;50.392;7.482;2023-05-21T03:06:02;15.90;;;14.13;;
4980;SDS011;2507;50.392;7.482;2023-05-21T03:08:27;17.67;;;15.80;;
4980;SDS011;2507;50.392;7.482;2023-05-21T03:10:53;18.93;;;15.20;;
4980;SDS011;2507;50.392;7.482;2023-05-21T03:13:19;17.80;;;15.37;;
4980;SDS011;2507;50.392;7.482;2023-05-21T03:15:45;19.13;;;15.43;;
4980;SDS011;2507;50.392;7.482;2023-05-21T03:18:10;18.17;;;15.83;;
4980;SDS011;2507;50.392;7.482;2023-05-21T03:20:37;17.63;;;15.73;;
4980;SDS011;2507;50.392;7.482;2023-05-21T03:23:07;18.17;;;16.27;;
4980;SDS011;2507;50.392;7.482;2023-05-21T03:25:33;19.23;;;15.67;;
4980;SDS011;2507;50.392;7.482;2023-05-21T03:27:58;17.20;;;15.40;;
4980;SDS011;2507;50.392;7.482;2023-05-21T03:30:23;16.97;;;15.17;;
4980;SDS011;2507;50.392;7.482;2023-05-21T03:32:49;17.20;;;15.40;;
4980;SDS011;2507;50.392;7.482;2023-05-21T03:35:15;18.90;;;16.90;;
4980;SDS011;2507;50.392;7.482;2023-05-21T03:37:40;25.60;;;16.60;;
4980;SDS011;2507;50.392;7.482;2023-05-21T03:40:06;16.77;;;14.97;;
4980;SDS011;2507;50.392;7.482;2023-05-21T03:42:32;24.70;;;16.60;;
4980;SDS011;2507;50.392;7.482;2023-05-21T03:44:57;17.83;;;15.90;;
4980;SDS011;2507;50.392;7.482;2023-05-21T03:47:22;23.20;;;16.57;;
4980;SDS011;2507;50.392;7.482;2023-05-21T03:49:48;17.03;;;14.97;;
4980;SDS011;2507;50.392;7.482;2023-05-21T03:52:13;19.13;;;17.23;;
4980;SDS011;2507;50.392;7.482;2023-05-21T03:54:38;18.40;;;15.97;;
4980;SDS011;2507;50.392;7.482;2023-05-21T03:57:03;17.20;;;15.40;;
4980;SDS011;2507;50.392;7.482;2023-05-21T03:59:29;20.00;;;16.83;;
4980;SDS011;2507;50.392;7.482;2023-05-21T04:01:54;28.87;;;17.63;;
4980;SDS011;2507;50.392;7.482;2023-05-21T04:04:19;19.97;;;17.30;;
4980;SDS011;2507;50.392;7.482;2023-05-21T04:06:45;18.30;;;16.23;;
4980;SDS011;2507;50.392;7.482;2023-05-21T04:09:10;21.30;;;16.57;;
4980;SDS011;2507;50.392;7.482;2023-05-21T04:14:05;21.10;;;16.93;;
4980;SDS011;2507;50.392;7.482;2023-05-21T04:16:30;21.80;;;16.87;;
4980;SDS011;2507;50.392;7.482;2023-05-21T04:18:58;20.17;;;16.50;;
4980;SDS011;2507;50.392;7.482;2023-05-21T04:21:23;19.17;;;17.13;;
4980;SDS011;2507;50.392;7.482;2023-05-21T04:23:49;20.77;;;17.00;;
4980;SDS011;2507;50.392;7.482;2023-05-21T04:26:14;22.17;;;17.33;;
4980;SDS011;2507;50.392;7.482;2023-05-21T04:28:40;22.33;;;18.80;;
4980;SDS011;2507;50.392;7.482;2023-05-21T04:31:06;22.73;;;17.77;;
4980;SDS011;2507;50.392;7.482;2023-05-21T04:33:32;20.27;;;17.57;;
4980;SDS011;2507;50.392;7.482;2023-05-21T04:35:59;19.60;;;17.23;;
4980;SDS011;2507;50.392;7.482;2023-05-21T04:38:25;21.67;;;18.30;;
4980;SDS011;2507;50.392;7.482;2023-05-21T04:40:50;22.43;;;18.07;;
4980;SDS011;2507;50.392;7.482;2023-05-21T04:43:16;19.93;;;17.10;;
4980;SDS011;2507;50.392;7.482;2023-05-21T04:45:42;19.50;;;17.03;;
4980;SDS011;2507;50.392;7.482;2023-05-21T04:48:07;22.40;;;17.97;;
4980;SDS011;2507;50.392;7.482;2023-05-21T04:50:33;19.43;;;17.37;;
4980;SDS011;2507;50.392;7.482;2023-05-21T04:52:58;22.00;;;18.37;;
4980;SDS011;2507;50.392;7.482;2023-05-21T04:55:23;22.13;;;17.67;;
4980;SDS011;2507;50.392;7.482;2023-05-21T04:57:49;20.40;;;17.70;;
4980;SDS011;2507;50.392;7.482;2023-05-21T05:00:15;21.47;;;18.40;;
4980;SDS011;2507;50.392;7.482;2023-05-21T05:02:41;20.33;;;18.13;;
4980;SDS011;2507;50.392;7.482;2023-05-21T05:05:06;20.13;;;17.80;;
4980;SDS011;2507;50.392;7.482;2023-05-21T05:07:32;20.77;;;17.70;;
4980;SDS011;2507;50.392;7.482;2023-05-21T05:09:57;22.40;;;18.47;;
4980;SDS011;2507;50.392;7.482;2023-05-21T05:12:23;19.50;;;17.17;;
4980;SDS011;2507;50.392;7.482;2023-05-21T05:14:48;21.70;;;16.90;;
4980;SDS011;2507;50.392;7.482;2023-05-21T05:17:13;20.10;;;17.60;;
4980;SDS011;2507;50.392;7.482;2023-05-21T05:19:38;20.57;;;17.70;;
4980;SDS011;2507;50.392;7.482;2023-05-21T05:22:04;21.30;;;17.33;;
4980;SDS011;2507;50.392;7.482;2023-05-21T05:24:29;25.37;;;18.20;;
4980;SDS011;2507;50.392;7.482;2023-05-21T05:26:54;21.80;;;17.73;;
4980;SDS011;2507;50.392;7.482;2023-05-21T05:29:20;19.07;;;17.13;;
4980;SDS011;2507;50.392;7.482;2023-05-21T05:31:45;18.73;;;16.67;;
4980;SDS011;2507;50.392;7.482;2023-05-21T05:34:10;20.97;;;18.37;;
4980;SDS011;2507;50.392;7.482;2023-05-21T05:36:35;19.77;;;16.90;;
4980;SDS011;2507;50.392;7.482;2023-05-21T05:39:01;19.63;;;17.33;;
4980;SDS011;2507;50.392;7.482;2023-05-21T05:41:26;20.63;;;16.77;;
4980;SDS011;2507;50.392;7.482;2023-05-21T05:43:51;20.20;;;17.20;;
4980;SDS011;2507;50.392;7.482;2023-05-21T05:46:17;22.10;;;17.50;;
4980;SDS011;2507;50.392;7.482;2023-05-21T05:48:42;18.00;;;16.10;;
4980;SDS011;2507;50.392;7.482;2023-05-21T05:51:07;22.93;;;17.40;;
4980;SDS011;2507;50.392;7.482;2023-05-21T05:53:33;19.40;;;16.33;;
4980;SDS011;2507;50.392;7.482;2023-05-21T05:55:58;19.77;;;17.77;;
4980;SDS011;2507;50.392;7.482;2023-05-21T05:58:23;23.23;;;17.10;;
4980;SDS011;2507;50.392;7.482;2023-05-21T06:00:49;16.80;;;15.10;;
4980;SDS011;2507;50.392;7.482;2023-05-21T06:03:14;19.20;;;15.77;;
4980;SDS011;2507;50.392;7.482;2023-05-21T06:05:40;21.70;;;16.57;;
4980;SDS011;2507;50.392;7.482;2023-05-21T06:08:05;18.83;;;16.77;;
4980;SDS011;2507;50.392;7.482;2023-05-21T06:10:30;20.40;;;17.00;;
4980;SDS011;2507;50.392;7.482;2023-05-21T06:12:56;17.30;;;15.27;;
4980;SDS011;2507;50.392;7.482;2023-05-21T06:15:21;18.60;;;16.70;;
4980;SDS011;2507;50.392;7.482;2023-05-21T06:17:46;18.20;;;16.30;;
4980;SDS011;2507;50.392;7.482;2023-05-21T06:20:12;18.03;;;14.33;;
4980;SDS011;2507;50.392;7.482;2023-05-21T06:22:37;17.40;;;14.03;;
4980;SDS011;2507;50.392;7.482;2023-05-21T06:25:03;20.10;;;16.10;;
4980;SDS011;2507;50.392;7.482;2023-05-21T06:27:28;17.67;;;15.77;;
4980;SDS011;2507;50.392;7.482;2023-05-21T06:29:54;16.97;;;14.90;;
4980;SDS011;2507;50.392;7.482;2023-05-21T06:32:19;21.17;;;15.20;;
4980;SDS011;2507;50.392;7.482;2023-05-21T06:34:45;19.03;;;15.30;;
4980;SDS011;2507;50.392;7.482;2023-05-21T06:37:10;16.37;;;14.60;;
4980;SDS011;2507;50.392;7.482;2023-05-21T06:39:36;15.93;;;13.93;;
4980;SDS011;2507;50.392;7.482;2023-05-21T06:42:01;15.20;;;12.93;;
4980;SDS011;2507;50.392;7.482;2023-05-21T06:44:26;15.90;;;14.20;;
4980;SDS011;2507;50.392;7.482;2023-05-21T06:46:51;16.53;;;13.83;;
4980;SDS011;2507;50.392;7.482;2023-05-21T06:49:17;14.53;;;13.03;;
4980;SDS011;2507;50.392;7.482;2023-05-21T06:51:42;15.33;;;13.77;;
4980;SDS011;2507;50.392;7.482;2023-05-21T06:54:07;15.13;;;13.60;;
4980;SDS011;2507;50.392;7.482;2023-05-21T06:56:32;15.90;;;13.23;;
4980;SDS011;2507;50.392;7.482;2023-05-21T06:58:58;15.60;;;14.00;;
4980;SDS011;2507;50.392;7.482;2023-05-21T07:01:23;14.97;;;12.87;;
4980;SDS011;2507;50.392;7.482;2023-05-21T07:03:48;14.40;;;12.90;;
4980;SDS011;2507;50.392;7.482;2023-05-21T07:06:14;14.90;;;12.60;;
4980;SDS011;2507;50.392;7.482;2023-05-21T07:08:40;14.03;;;12.53;;
4980;SDS011;2507;50.392;7.482;2023-05-21T07:11:06;16.33;;;12.73;;
4980;SDS011;2507;50.392;7.482;2023-05-21T07:13:31;13.80;;;12.30;;
4980;SDS011;2507;50.392;7.482;2023-05-21T07:15:56;13.90;;;12.50;;
4980;SDS011;2507;50.392;7.482;2023-05-21T07:18:21;13.00;;;11.77;;
4980;SDS011;2507;50.392;7.482;2023-05-21T07:20:47;17.00;;;13.63;;
4980;SDS011;2507;50.392;7.482;2023-05-21T07:23:12;15.03;;;13.20;;
4980;SDS011;2507;50.392;7.482;2023-05-21T07:25:37;14.83;;;11.97;;
4980;SDS011;2507;50.392;7.482;2023-05-21T07:28:03;12.93;;;11.60;;
4980;SDS011;2507;50.392;7.482;2023-05-21T07:30:28;15.27;;;12.27;;
4980;SDS011;2507;50.392;7.482;2023-05-21T07:32:53;14.27;;;12.67;;
4980;SDS011;2507;50.392;7.482;2023-05-21T07:35:19;13.33;;;11.97;;
4980;SDS011;2507;50.392;7.482;2023-05-21T07:37:44;16.07;;;13.00;;
4980;SDS011;2507;50.392;7.482;2023-05-21T07:40:10;13.43;;;11.00;;
4980;SDS011;2507;50.392;7.482;2023-05-21T07:42:36;13.17;;;11.83;;
4980;SDS011;2507;50.392;7.482;2023-05-21T07:45:01;14.77;;;13.27;;
4980;SDS011;2507;50.392;7.482;2023-05-21T07:47:27;14.20;;;12.70;;
4980;SDS011;2507;50.392;7.482;2023-05-21T07:49:52;13.83;;;12.43;;
4980;SDS011;2507;50.392;7.482;2023-05-21T07:52:17;14.30;;;12.97;;
4980;SDS011;2507;50.392;7.482;2023-05-21T07:54:43;13.00;;;11.80;;
4980;SDS011;2507;50.392;7.482;2023-05-21T07:57:08;16.70;;;13.37;;
4980;SDS011;2507;50.392;7.482;2023-05-21T07:59:33;13.93;;;12.43;;
4980;SDS011;2507;50.392;7.482;2023-05-21T08:01:58;15.43;;;12.30;;
4980;SDS011;2507;50.392;7.482;2023-05-21T08:04:24;13.40;;;11.47;;
4980;SDS011;2507;50.392;7.482;2023-05-21T08:06:50;13.30;;;12.00;;
4980;SDS011;2507;50.392;7.482;2023-05-21T08:09:15;23.13;;;12.93;;
4980;SDS011;2507;50.392;7.482;2023-05-21T08:11:40;16.70;;;11.20;;
4980;SDS011;2507;50.392;7.482;2023-05-21T08:14:06;12.27;;;11.17;;
4980;SDS011;2507;50.392;7.482;2023-05-21T08:16:31;13.90;;;11.83;;
4980;SDS011;2507;50.392;7.482;2023-05-21T08:18:56;13.40;;;12.00;;
4980;SDS011;2507;50.392;7.482;2023-05-21T08:21:22;11.83;;;10.67;;
4980;SDS011;2507;50.392;7.482;2023-05-21T08:23:47;14.23;;;12.47;;
4980;SDS011;2507;50.392;7.482;2023-05-21T08:26:12;13.17;;;11.30;;
4980;SDS011;2507;50.392;7.482;2023-05-21T08:28:40;12.87;;;11.57;;
4980;SDS011;2507;50.392;7.482;2023-05-21T08:31:06;13.50;;;12.10;;
4980;SDS011;2507;50.392;7.482;2023-05-21T08:33:33;13.97;;;12.30;;
4980;SDS011;2507;50.392;7.482;2023-05-21T08:36:00;13.40;;;12.07;;
4980;SDS011;2507;50.392;7.482;2023-05-21T08:38:26;13.70;;;11.77;;
4980;SDS011;2507;50.392;7.482;2023-05-21T08:40:51;12.80;;;11.50;;
4980;SDS011;2507;50.392;7.482;2023-05-21T08:43:18;13.03;;;10.50;;
4980;SDS011;2507;50.392;7.482;2023-05-21T08:45:46;13.33;;;11.20;;
4980;SDS011;2507;50.392;7.482;2023-05-21T08:48:18;16.53;;;11.27;;
4980;SDS011;2507;50.392;7.482;2023-05-21T08:50:46;13.40;;;12.00;;
4980;SDS011;2507;50.392;7.482;2023-05-21T08:53:13;13.80;;;11.90;;
4980;SDS011;2507;50.392;7.482;2023-05-21T08:55:38;13.83;;;12.30;;
4980;SDS011;2507;50.392;7.482;2023-05-21T08:58:06;14.00;;;12.50;;
4980;SDS011;2507;50.392;7.482;2023-05-21T09:00:31;13.53;;;11.93;;
4980;SDS011;2507;50.392;7.482;2023-05-21T09:02:57;12.30;;;11.10;;
4980;SDS011;2507;50.392;7.482;2023-05-21T09:05:25;14.10;;;11.73;;
4980;SDS011;2507;50.392;7.482;2023-05-21T09:08:09;12.67;;;11.37;;
4980;SDS011;2507;50.392;7.482;2023-05-21T09:10:37;13.27;;;11.80;;
4980;SDS011;2507;50.392;7.482;2023-05-21T09:13:06;16.20;;;11.93;;
4980;SDS011;2507;50.392;7.482;2023-05-21T09:15:34;12.87;;;11.63;;
4980;SDS011;2507;50.392;7.482;2023-05-21T09:17:59;12.50;;;11.33;;
4980;SDS011;2507;50.392;7.482;2023-05-21T09:20:25;12.53;;;11.33;;
4980;SDS011;2507;50.392;7.482;2023-05-21T09:22:52;12.73;;;11.53;;
4980;SDS011;2507;50.392;7.482;2023-05-21T09:25:20;11.77;;;10.67;;
4980;SDS011;2507;50.392;7.482;2023-05-21T09:27:47;14.37;;;11.80;;
4980;SDS011;2507;50.392;7.482;2023-05-21T09:30:16;14.10;;;11.40;;
4980;SDS011;2507;50.392;7.482;2023-05-21T09:32:43;14.30;;;11.70;;
4980;SDS011;2507;50.392;7.482;2023-05-21T09:37:46;13.20;;;12.00;;
4980;SDS011;2507;50.392;7.482;2023-05-21T09:40:13;16.63;;;12.00;;
4980;SDS011;2507;50.392;7.482;2023-05-21T09:42:39;12.67;;;11.30;;
4980;SDS011;2507;50.392;7.482;2023-05-21T09:45:08;16.80;;;10.97;;
4980;SDS011;2507;50.392;7.482;2023-05-21T09:47:39;13.77;;;10.90;;
4980;SDS011;2507;50.392;7.482;2023-05-21T09:50:09;12.10;;;10.90;;
4980;SDS011;2507;50.392;7.482;2023-05-21T09:52:35;12.93;;;10.80;;
4980;SDS011;2507;50.392;7.482;2023-05-21T09:55:02;12.27;;;10.90;;
4980;SDS011;2507;50.392;7.482;2023-05-21T09:57:39;14.07;;;12.70;;
4980;SDS011;2507;50.392;7.482;2023-05-21T10:00:08;11.77;;;10.57;;
4980;SDS011;2507;50.392;7.482;2023-05-21T10:02:41;13.20;;;11.80;;
4980;SDS011;2507;50.392;7.482;2023-05-21T10:05:10;12.97;;;11.10;;
4980;SDS011;2507;50.392;7.482;2023-05-21T10:07:37;14.20;;;10.57;;
4980;SDS011;2507;50.392;7.482;2023-05-21T10:10:05;13.93;;;10.43;;
4980;SDS011;2507;50.392;7.482;2023-05-21T10:12:34;12.97;;;11.63;;
4980;SDS011;2507;50.392;7.482;2023-05-21T10:15:02;12.30;;;11.27;;
4980;SDS011;2507;50.392;7.482;2023-05-21T10:17:28;12.40;;;11.20;;
4980;SDS011;2507;50.392;7.482;2023-05-21T10:19:58;11.90;;;10.80;;
4980;SDS011;2507;50.392;7.482;2023-05-21T10:22:25;13.07;;;11.80;;
4980;SDS011;2507;50.392;7.482;2023-05-21T10:24:51;12.37;;;11.17;;
4980;SDS011;2507;50.392;7.482;2023-05-21T10:27:17;12.67;;;11.47;;
4980;SDS011;2507;50.392;7.482;2023-05-21T10:29:42;13.33;;;12.03;;
4980;SDS011;2507;50.392;7.482;2023-05-21T10:32:10;12.03;;;10.93;;
4980;SDS011;2507;50.392;7.482;2023-05-21T10:34:36;13.10;;;11.70;;
4980;SDS011;2507;50.392;7.482;2023-05-21T10:37:02;12.47;;;11.17;;
4980;SDS011;2507;50.392;7.482;2023-05-21T10:39:28;11.30;;;10.40;;
4980;SDS011;2507;50.392;7.482;2023-05-21T10:42:01;11.77;;;10.63;;
4980;SDS011;2507;50.392;7.482;2023-05-21T10:50:24;13.93;;;11.67;;
4980;SDS011;2507;50.392;7.482;2023-05-21T10:53:27;12.13;;;10.93;;
4980;SDS011;2507;50.392;7.482;2023-05-21T11:01:42;13.50;;;11.97;;
4980;SDS011;2507;50.392;7.482;2023-05-21T11:04:09;11.63;;;10.60;;
4980;SDS011;2507;50.392;7.482;2023-05-21T11:06:36;11.53;;;10.43;;
4980;SDS011;2507;50.392;7.482;2023-05-21T11:09:10;11.47;;;10.53;;
4980;SDS011;2507;50.392;7.482;2023-05-21T11:11:50;12.23;;;11.03;;
4980;SDS011;2507;50.392;7.482;2023-05-21T11:14:54;12.43;;;11.17;;
4980;SDS011;2507;50.392;7.482;2023-05-21T11:17:39;12.73;;;11.07;;
4980;SDS011;2507;50.392;7.482;2023-05-21T11:20:10;12.20;;;11.13;;
4980;SDS011;2507;50.392;7.482;2023-05-21T11:22:37;11.40;;;10.50;;
4980;SDS011;2507;50.392;7.482;2023-05-21T11:25:02;13.53;;;12.20;;
4980;SDS011;2507;50.392;7.482;2023-05-21T11:27:35;12.77;;;11.57;;
4980;SDS011;2507;50.392;7.482;2023-05-21T11:30:17;11.20;;;10.20;;
4980;SDS011;2507;50.392;7.482;2023-05-21T11:35:38;13.20;;;11.90;;
4980;SDS011;2507;50.392;7.482;2023-05-21T11:38:21;11.23;;;10.20;;
4980;SDS011;2507;50.392;7.482;2023-05-21T11:40:49;11.30;;;10.33;;
4980;SDS011;2507;50.392;7.482;2023-05-21T11:43:18;11.93;;;10.83;;
4980;SDS011;2507;50.392;7.482;2023-05-21T11:45:43;11.73;;;10.73;;
4980;SDS011;2507;50.392;7.482;2023-05-21T11:48:12;16.80;;;11.63;;
4980;SDS011;2507;50.392;7.482;2023-05-21T11:50:37;11.33;;;10.40;;
4980;SDS011;2507;50.392;7.482;2023-05-21T11:53:06;11.03;;;10.13;;
4980;SDS011;2507;50.392;7.482;2023-05-21T11:55:32;12.50;;;11.30;;
4980;SDS011;2507;50.392;7.482;2023-05-21T11:58:02;12.70;;;11.07;;
4980;SDS011;2507;50.392;7.482;2023-05-21T12:00:29;10.47;;;9.67;;
4980;SDS011;2507;50.392;7.482;2023-05-21T12:02:55;11.63;;;10.43;;
4980;SDS011;2507;50.392;7.482;2023-05-21T12:05:22;11.43;;;10.43;;
4980;SDS011;2507;50.392;7.482;2023-05-21T12:07:48;12.33;;;11.10;;
4980;SDS011;2507;50.392;7.482;2023-05-21T12:10:14;11.70;;;10.70;;
4980;SDS011;2507;50.392;7.482;2023-05-21T12:12:40;11.33;;;10.27;;
4980;SDS011;2507;50.392;7.482;2023-05-21T12:15:06;11.73;;;10.63;;
4980;SDS011;2507;50.392;7.482;2023-05-21T12:17:32;12.23;;;11.13;;
4980;SDS011;2507;50.392;7.482;2023-05-21T12:19:58;11.37;;;10.27;;
4980;SDS011;2507;50.392;7.482;2023-05-21T12:22:25;11.53;;;10.50;;
4980;SDS011;2507;50.392;7.482;2023-05-21T12:24:52;12.10;;;10.90;;
4980;SDS011;2507;50.392;7.482;2023-05-21T12:27:18;11.03;;;10.00;;
4980;SDS011;2507;50.392;7.482;2023-05-21T12:29:47;13.17;;;11.00;;
4980;SDS011;2507;50.392;7.482;2023-05-21T12:32:15;14.63;;;11.50;;
4980;SDS011;2507;50.392;7.482;2023-05-21T12:37:10;11.90;;;10.90;;
4980;SDS011;2507;50.392;7.482;2023-05-21T12:39:42;11.63;;;10.53;;
4980;SDS011;2507;50.392;7.482;2023-05-21T12:42:09;10.57;;;9.67;;
4980;SDS011;2507;50.392;7.482;2023-05-21T12:44:35;13.40;;;10.20;;
4980;SDS011;2507;50.392;7.482;2023-05-21T12:47:02;11.20;;;10.17;;
4980;SDS011;2507;50.392;7.482;2023-05-21T12:51:57;12.30;;;10.90;;
4980;SDS011;2507;50.392;7.482;2023-05-21T12:54:32;10.80;;;9.70;;
4980;SDS011;2507;50.392;7.482;2023-05-21T12:57:05;10.30;;;9.40;;
4980;SDS011;2507;50.392;7.482;2023-05-21T12:59:42;11.33;;;10.27;;
4980;SDS011;2507;50.392;7.482;2023-05-21T13:02:30;11.00;;;10.00;;
4980;SDS011;2507;50.392;7.482;2023-05-21T13:04:58;11.03;;;10.03;;
4980;SDS011;2507;50.392;7.482;2023-05-21T13:07:27;10.43;;;9.53;;
4980;SDS011;2507;50.392;7.482;2023-05-21T13:09:53;11.37;;;10.20;;
4980;SDS011;2507;50.392;7.482;2023-05-21T13:12:20;11.57;;;10.43;;
4980;SDS011;2507;50.392;7.482;2023-05-21T13:14:50;10.97;;;10.07;;
4980;SDS011;2507;50.392;7.482;2023-05-21T13:17:18;13.90;;;10.37;;
4980;SDS011;2507;50.392;7.482;2023-05-21T13:20:06;11.10;;;9.50;;
4980;SDS011;2507;50.392;7.482;2023-05-21T13:22:45;10.87;;;9.77;;
4980;SDS011;2507;50.392;7.482;2023-05-21T13:25:13;10.67;;;9.77;;
4980;SDS011;2507;50.392;7.482;2023-05-21T13:27:43;13.63;;;11.20;;
4980;SDS011;2507;50.392;7.482;2023-05-21T13:30:09;11.43;;;10.43;;
4980;SDS011;2507;50.392;7.482;2023-05-21T13:32:35;11.70;;;10.50;;
4980;SDS011;2507;50.392;7.482;2023-05-21T13:35:02;12.03;;;10.93;;
4980;SDS011;2507;50.392;7.482;2023-05-21T13:37:27;15.80;;;14.40;;
4980;SDS011;2507;50.392;7.482;2023-05-21T13:39:53;17.90;;;12.03;;
4980;SDS011;2507;50.392;7.482;2023-05-21T13:42:19;12.87;;;11.30;;
4980;SDS011;2507;50.392;7.482;2023-05-21T13:44:48;13.80;;;12.40;;
4980;SDS011;2507;50.392;7.482;2023-05-21T13:47:14;18.17;;;15.13;;
4980;SDS011;2507;50.392;7.482;2023-05-21T13:49:40;12.47;;;11.17;;
4980;SDS011;2507;50.392;7.482;2023-05-21T13:52:06;13.23;;;10.03;;
4980;SDS011;2507;50.392;7.482;2023-05-21T13:54:33;11.30;;;10.30;;
4980;SDS011;2507;50.392;7.482;2023-05-21T13:56:59;11.73;;;10.53;;
4980;SDS011;2507;50.392;7.482;2023-05-21T13:59:25;12.30;;;10.00;;
4980;SDS011;2507;50.392;7.482;2023-05-21T14:01:50;11.00;;;9.90;;
4980;SDS011;2507;50.392;7.482;2023-05-21T14:04:16;10.63;;;9.63;;
4980;SDS011;2507;50.392;7.482;2023-05-21T14:06:42;11.43;;;10.43;;
4980;SDS011;2507;50.392;7.482;2023-05-21T14:09:08;10.40;;;9.50;;
4980;SDS011;2507;50.392;7.482;2023-05-21T14:11:34;10.73;;;9.70;;
4980;SDS011;2507;50.392;7.482;2023-05-21T14:13:59;11.10;;;10.10;;
4980;SDS011;2507;50.392;7.482;2023-05-21T14:16:25;11.50;;;10.50;;
4980;SDS011;2507;50.392;7.482;2023-05-21T14:18:54;13.83;;;10.73;;
4980;SDS011;2507;50.392;7.482;2023-05-21T14:21:23;10.83;;;9.87;;
4980;SDS011;2507;50.392;7.482;2023-05-21T14:23:49;11.47;;;10.47;;
4980;SDS011;2507;50.392;7.482;2023-05-21T14:26:15;12.60;;;11.30;;
4980;SDS011;2507;50.392;7.482;2023-05-21T14:28:41;11.17;;;10.07;;
4980;SDS011;2507;50.392;7.482;2023-05-21T14:31:07;11.07;;;9.97;;
4980;SDS011;2507;50.392;7.482;2023-05-21T14:33:34;12.80;;;11.60;;
4980;SDS011;2507;50.392;7.482;2023-05-21T14:36:01;13.43;;;12.23;;
4980;SDS011;2507;50.392;7.482;2023-05-21T14:38:27;11.30;;;10.40;;
4980;SDS011;2507;50.392;7.482;2023-05-21T14:40:53;11.70;;;10.70;;
4980;SDS011;2507;50.392;7.482;2023-05-21T14:43:18;11.80;;;10.70;;
4980;SDS011;2507;50.392;7.482;2023-05-21T14:45:44;11.97;;;10.87;;
4980;SDS011;2507;50.392;7.482;2023-05-21T14:48:10;14.50;;;10.63;;
4980;SDS011;2507;50.392;7.482;2023-05-21T14:50:39;14.40;;;10.80;;
4980;SDS011;2507;50.392;7.482;2023-05-21T14:53:05;12.30;;;11.00;;
4980;SDS011;2507;50.392;7.482;2023-05-21T14:55:35;11.87;;;10.67;;
4980;SDS011;2507;50.392;7.482;2023-05-21T14:58:02;11.07;;;10.03;;
4980;SDS011;2507;50.392;7.482;2023-05-21T15:00:28;11.63;;;10.63;;
4980;SDS011;2507;50.392;7.482;2023-05-21T15:02:55;11.27;;;10.13;;
4980;SDS011;2507;50.392;7.482;2023-05-21T15:05:21;11.63;;;10.30;;
4980;SDS011;2507;50.392;7.482;2023-05-21T15:07:47;12.03;;;10.90;;
4980;SDS011;2507;50.392;7.482;2023-05-21T15:10:13;11.13;;;10.23;;
4980;SDS011;2507;50.392;7.482;2023-05-21T15:12:39;11.70;;;10.50;;
4980;SDS011;2507;50.392;7.482;2023-05-21T15:15:08;11.07;;;10.03;;
4980;SDS011;2507;50.392;7.482;2023-05-21T15:17:36;11.90;;;10.67;;